Pagrindinis puslapis
METAR-TAF:

METAR-TAF

Oro uostai :

Kuveitas, Kuveitas

platuma: 29-13N, ilguma: 047-59E, Aukštis: 55 m

Dabartinis oras

Ataskaita buvo paskelbta 40 minutes, ne 23:00 UTC
Vėjas 3 kt iš Pietų
Temperatūra 27°C
Drėgmė 28%
Slėgis 1003 hPa
Matomumas 10 km arba daugiau
nėra debesų žemiau 1500 m ir nėra kamuolinių lietaus debesų

METAR: OKBK 232300Z 17003KT CAVOK 27/07 Q1003 NOSIG

Laikas: 02:40 (23:40 UTC)

Prognozė

Ataskaita buvo paskelbta 55 minutes, ne 22:45 UTC
Prognozė galioja nuo 24 metu 00 UTC su 25 metu 06 UTC
Vėjas 3 kt nuo kintamojo kryptimis
Matomumas: 7000 m
Laikinai
nuo 24 metu 00 UTC su 24 metu 04 UTC
Matomumas: 4000 m
migla

TAF: OKBK 232245Z 2400/2506 VRB03KT 7000 NSC TEMPO 2400/2404 4000 HZ

Orai ataskaitas ir orų prognozės (METAR, TAF).

turimą stotys yra geltonos ir raudonos taškus žemėlapyje.

Perkelti pele per norėdami pamatyti stoties vardą.

Tada spustelėkite, norėdami matyti oro stebėjimo ir prognozės.

Norėdami pakeisti žemėlapį: spustelėkite ant žalios mygtukų su juodo kryžiaus žemyn,; žalią mygtuką su brūkšneliu, jei norite nutolinti; arba žalių rodyklių gretimoms žemėlapius.


METAR-TAF: